Time;durP1;ratioP1;P1;durP2;ratioP2;P2;SDS_P1;SDS_P2;PMS_P1;PMS_P2;Temp;Humidity;BMP_temperature;BMP_pressure;BME280_temperature;BME280_humidity;BME280_pressure;Samples;Min_cycle;Max_cycle;Signal;HPM_P1;HPM_P2
2023/09/29 00:00:41;;;;;;;4.05;2.17;;;24.70;99.90;;;;;;5073485;28;20017;-47
2023/09/29 00:03:08;;;;;;;2.75;2.00;;;24.70;99.90;;;;;;5072733;28;20029;-47
2023/09/29 00:05:35;;;;;;;2.58;1.63;;;24.70;99.90;;;;;;5072946;28;20028;-47
2023/09/29 00:08:00;;;;;;;5.85;1.95;;;24.70;99.90;;;;;;5072671;28;20473;-47
2023/09/29 00:10:26;;;;;;;4.20;1.77;;;24.60;99.90;;;;;;5072603;28;20047;-47
2023/09/29 00:12:52;;;;;;;4.13;1.30;;;24.60;99.90;;;;;;5072611;28;20051;-48
2023/09/29 00:15:19;;;;;;;2.65;1.50;;;24.60;99.90;;;;;;5072679;28;20552;-47
2023/09/29 00:17:46;;;;;;;3.97;1.30;;;24.60;99.90;;;;;;5071602;28;20373;-48
2023/09/29 00:22:38;;;;;;;3.00;2.05;;;24.60;99.90;;;;;;5072338;28;20056;-47
2023/09/29 00:25:08;;;;;;;5.90;2.30;;;24.60;99.90;;;;;;5072804;28;20024;-47
2023/09/29 00:27:34;;;;;;;1.45;1.13;;;24.60;99.90;;;;;;5072798;28;20476;-47
2023/09/29 00:30:00;;;;;;;2.30;1.35;;;24.60;99.90;;;;;;5072232;28;20037;-47
2023/09/29 00:32:26;;;;;;;3.83;1.58;;;24.60;99.90;;;;;;5072487;28;20380;-47
2023/09/29 00:34:52;;;;;;;2.17;1.30;;;24.60;99.90;;;;;;5072413;28;20025;-47
2023/09/29 00:37:17;;;;;;;5.15;1.52;;;24.50;99.90;;;;;;5072411;28;20021;-47
2023/09/29 00:39:43;;;;;;;6.00;1.33;;;24.50;99.90;;;;;;5072435;28;20429;-47
2023/09/29 00:42:09;;;;;;;1.88;0.98;;;24.50;99.90;;;;;;5072438;28;20024;-47
2023/09/29 00:44:35;;;;;;;1.90;1.30;;;24.50;99.90;;;;;;5072476;28;20038;-47
2023/09/29 00:47:05;;;;;;;2.97;1.13;;;24.50;99.90;;;;;;5072147;28;20052;-49
2023/09/29 00:49:31;;;;;;;5.70;2.38;;;24.50;99.90;;;;;;5071939;28;20101;-48
2023/09/29 00:52:03;;;;;;;1.55;1.13;;;24.50;99.90;;;;;;5073631;28;20035;-48
2023/09/29 00:54:32;;;;;;;2.45;1.20;;;24.50;99.90;;;;;;5072251;28;20074;-48
2023/09/29 00:57:00;;;;;;;2.78;1.27;;;24.50;99.90;;;;;;5068877;28;20020;-47
2023/09/29 00:59:31;;;;;;;4.70;1.73;;;24.50;99.90;;;;;;5070511;28;20025;-47
2023/09/29 01:01:57;;;;;;;3.53;1.48;;;24.50;99.90;;;;;;5074014;28;20388;-48
2023/09/29 01:04:23;;;;;;;4.28;1.33;;;24.40;99.90;;;;;;5069740;28;20090;-48
2023/09/29 01:06:50;;;;;;;5.20;1.58;;;24.40;99.90;;;;;;5069869;28;20020;-48
2023/09/29 01:09:16;;;;;;;5.53;1.67;;;24.40;99.90;;;;;;5071043;28;20028;-48
2023/09/29 01:11:46;;;;;;;3.13;1.50;;;24.30;99.90;;;;;;5072672;28;20074;-48
2023/09/29 01:14:12;;;;;;;3.75;1.30;;;24.40;99.90;;;;;;5070278;28;20427;-48
2023/09/29 01:16:40;;;;;;;2.50;1.20;;;24.30;99.90;;;;;;5070691;28;20525;-48
2023/09/29 01:19:13;;;;;;;2.55;1.27;;;24.30;99.90;;;;;;5073447;28;20107;-48
2023/09/29 01:21:44;;;;;;;1.80;1.20;;;24.30;99.90;;;;;;5072264;28;20495;-48
2023/09/29 01:24:11;;;;;;;1.67;1.27;;;24.30;99.90;;;;;;5070400;28;20053;-48
2023/09/29 01:26:37;;;;;;;2.30;1.42;;;24.30;99.90;;;;;;5070463;28;20024;-48
2023/09/29 01:29:03;;;;;;;2.47;1.65;;;24.20;99.90;;;;;;5072339;28;20097;-48
2023/09/29 01:31:31;;;;;;;3.13;1.42;;;24.30;99.90;;;;;;5069673;28;20025;-48
2023/09/29 01:33:57;;;;;;;2.78;1.38;;;24.20;99.90;;;;;;5069705;28;20036;-48
2023/09/29 01:36:24;;;;;;;2.53;1.50;;;24.20;99.90;;;;;;5071746;28;20076;-48
2023/09/29 01:38:50;;;;;;;1.70;1.27;;;24.20;99.90;;;;;;5072291;28;20023;-48
2023/09/29 01:41:15;;;;;;;4.13;1.40;;;24.20;99.90;;;;;;5070319;28;20024;-48
2023/09/29 01:43:41;;;;;;;0.95;0.90;;;24.20;99.90;;;;;;5069693;28;20090;-48
2023/09/29 01:46:11;;;;;;;3.55;1.67;;;24.20;99.90;;;;;;5072527;28;20042;-48
2023/09/29 01:48:37;;;;;;;1.50;1.02;;;24.20;99.90;;;;;;5071799;28;20063;-48
2023/09/29 01:51:03;;;;;;;1.88;1.30;;;24.10;99.90;;;;;;5069938;28;20477;-47
2023/09/29 01:53:30;;;;;;;2.15;1.30;;;24.10;99.90;;;;;;5070729;28;20384;-47
2023/09/29 01:55:57;;;;;;;2.40;1.42;;;24.10;99.90;;;;;;5073631;28;20075;-47
2023/09/29 01:58:23;;;;;;;2.42;1.30;;;24.10;99.90;;;;;;5074188;28;20049;-47
2023/09/29 02:00:49;;;;;;;3.28;1.30;;;24.10;99.90;;;;;;5073898;28;20483;-47
2023/09/29 02:03:16;;;;;;;3.57;1.37;;;24.10;99.90;;;;;;5073507;28;20027;-47
2023/09/29 02:05:42;;;;;;;1.20;1.00;;;24.10;99.90;;;;;;5108887;28;20517;-50
2023/09/29 02:08:10;;;;;;;3.45;1.30;;;24.10;99.90;;;;;;5114536;28;20024;-48
2023/09/29 02:10:36;;;;;;;2.60;1.40;;;24.00;99.90;;;;;;5115645;28;20471;-47
2023/09/29 02:13:07;;;;;;;4.85;1.55;;;24.00;99.90;;;;;;5115586;28;20046;-48
2023/09/29 02:15:34;;;;;;;5.53;1.55;;;24.00;99.90;;;;;;5115523;28;20019;-48
2023/09/29 02:18:01;;;;;;;4.05;1.60;;;24.00;99.90;;;;;;5115460;28;20478;-47
2023/09/29 02:20:33;;;;;;;4.78;1.30;;;24.00;99.90;;;;;;5115724;28;20028;-47
2023/09/29 02:23:02;;;;;;;4.80;1.65;;;24.00;99.90;;;;;;5115481;28;20024;-48
2023/09/29 02:25:29;;;;;;;2.95;1.30;;;24.00;99.90;;;;;;5115326;28;20478;-47
2023/09/29 02:27:56;;;;;;;5.88;1.30;;;24.00;99.90;;;;;;5115453;28;20028;-48
2023/09/29 02:30:26;;;;;;;2.00;1.48;;;24.00;99.90;;;;;;5115256;28;20032;-47
2023/09/29 02:32:52;;;;;;;3.78;1.35;;;24.00;99.90;;;;;;5115300;28;20024;-47
2023/09/29 02:35:18;;;;;;;2.72;1.52;;;24.00;99.90;;;;;;5115269;28;20424;-47
2023/09/29 02:37:44;;;;;;;2.80;2.05;;;24.00;99.90;;;;;;5115261;28;20367;-48
2023/09/29 02:40:15;;;;;;;1.98;1.55;;;23.90;99.90;;;;;;5115270;28;20160;-48
2023/09/29 02:42:43;;;;;;;1.98;1.33;;;24.00;99.90;;;;;;5115321;28;20015;-48
2023/09/29 02:45:09;;;;;;;6.70;2.38;;;24.00;99.90;;;;;;5115009;28;20106;-47
2023/09/29 02:47:39;;;;;;;3.42;1.77;;;23.90;99.90;;;;;;5114931;28;20103;-49
2023/09/29 02:50:06;;;;;;;4.07;1.60;;;23.90;99.90;;;;;;5114785;28;20047;-48
2023/09/29 02:52:32;;;;;;;;;;;23.90;99.90;;;;;;5115206;28;20098;-48
2023/09/29 02:54:59;;;;;;;2.58;1.52;;;23.90;99.90;;;;;;5113612;28;19971;-48
2023/09/29 02:57:25;;;;;;;2.15;1.42;;;23.90;99.90;;;;;;5114842;28;20406;-47
2023/09/29 02:59:50;;;;;;;5.72;1.65;;;23.80;99.90;;;;;;5114648;28;20020;-47
2023/09/29 03:02:16;;;;;;;5.15;1.65;;;23.80;99.90;;;;;;5115405;28;20024;-48
2023/09/29 03:04:43;;;;;;;3.15;1.55;;;23.80;99.90;;;;;;5114890;28;20032;-47
2023/09/29 03:07:13;;;;;;;3.65;1.38;;;23.80;99.90;;;;;;5114461;28;20107;-47
2023/09/29 03:09:39;;;;;;;3.40;1.35;;;23.80;99.90;;;;;;5114413;28;20050;-47
2023/09/29 03:12:05;;;;;;;4.07;1.67;;;23.80;99.90;;;;;;5114403;28;20038;-48
2023/09/29 03:14:31;;;;;;;5.85;1.70;;;23.80;99.90;;;;;;5114389;28;20110;-48
2023/09/29 03:17:00;;;;;;;4.60;1.67;;;23.80;99.90;;;;;;5114372;28;20016;-47
2023/09/29 03:19:32;;;;;;;2.22;1.65;;;23.70;99.90;;;;;;5114432;28;20373;-47
2023/09/29 03:22:01;;;;;;;1.88;1.40;;;23.70;99.90;;;;;;5114220;28;20049;-48
2023/09/29 03:24:27;;;;;;;3.15;1.48;;;23.70;99.90;;;;;;5114281;28;20095;-48
2023/09/29 03:26:53;;;;;;;4.20;2.03;;;23.70;99.90;;;;;;5114264;28;20097;-47
2023/09/29 03:29:19;;;;;;;3.63;1.50;;;23.70;99.90;;;;;;5114114;28;20540;-47
2023/09/29 03:31:47;;;;;;;3.50;1.63;;;23.70;99.90;;;;;;5112914;28;20467;-48
2023/09/29 03:34:14;;;;;;;3.55;1.85;;;23.70;99.90;;;;;;5114241;28;20031;-48
2023/09/29 03:36:40;;;;;;;2.90;1.65;;;23.70;99.90;;;;;;5113969;28;20020;-47
2023/09/29 03:39:07;;;;;;;2.50;1.50;;;23.60;99.90;;;;;;5113736;28;20531;-48
2023/09/29 03:41:34;;;;;;;5.35;1.38;;;23.60;99.90;;;;;;5112488;28;20026;-48
2023/09/29 03:44:00;;;;;;;2.58;1.33;;;23.60;99.90;;;;;;5113726;28;20031;-47
2023/09/29 03:46:28;;;;;;;2.72;1.60;;;23.60;99.90;;;;;;5113700;28;20022;-47
2023/09/29 03:48:55;;;;;;;3.05;1.38;;;23.60;99.90;;;;;;5113624;28;20515;-48
2023/09/29 03:51:22;;;;;;;2.97;1.50;;;23.50;99.90;;;;;;5113738;28;20028;-47
2023/09/29 03:53:49;;;;;;;4.72;1.48;;;23.50;99.90;;;;;;5113641;28;20023;-47
2023/09/29 03:56:16;;;;;;;3.17;1.53;;;23.50;99.90;;;;;;5112720;28;20061;-47
2023/09/29 03:58:42;;;;;;;2.00;1.20;;;23.40;99.90;;;;;;5113352;28;20035;-47
2023/09/29 04:01:08;;;;;;;3.90;1.88;;;23.50;99.90;;;;;;5078209;28;20035;-47
2023/09/29 04:03:34;;;;;;;2.95;1.55;;;23.40;99.90;;;;;;5080125;28;20016;-48
2023/09/29 04:06:00;;;;;;;5.70;1.65;;;23.40;99.90;;;;;;5092740;28;20034;-47
2023/09/29 04:08:25;;;;;;;4.20;1.23;;;23.40;99.90;;;;;;5091101;28;20027;-47
2023/09/29 04:10:52;;;;;;;2.90;1.30;;;23.40;99.90;;;;;;5092532;28;20080;-47
2023/09/29 04:13:19;;;;;;;2.35;1.70;;;23.40;99.90;;;;;;5092705;28;20031;-47
2023/09/29 04:15:44;;;;;;;3.40;1.60;;;23.40;99.90;;;;;;5092589;28;20031;-47
2023/09/29 04:18:11;;;;;;;2.53;1.10;;;23.30;99.90;;;;;;5092379;28;20379;-48
2023/09/29 04:20:37;;;;;;;6.80;2.70;;;23.30;99.90;;;;;;5092306;28;20107;-47
2023/09/29 04:23:06;;;;;;;3.97;1.73;;;23.30;99.90;;;;;;5090633;28;20590;-48
2023/09/29 04:25:32;;;;;;;2.92;1.80;;;23.30;99.90;;;;;;5091800;28;20024;-47
2023/09/29 04:27:58;;;;;;;2.90;1.38;;;23.30;99.90;;;;;;5091149;28;20020;-48
2023/09/29 04:30:24;;;;;;;1.98;1.42;;;23.30;99.90;;;;;;5092613;28;20395;-48
2023/09/29 04:32:52;;;;;;;4.10;1.88;;;23.20;99.90;;;;;;5091304;28;20439;-48
2023/09/29 04:35:18;;;;;;;2.15;1.27;;;23.20;99.90;;;;;;5092716;28;20016;-48
2023/09/29 04:37:45;;;;;;;5.35;1.95;;;23.20;99.90;;;;;;5092839;28;20024;-48
2023/09/29 04:40:11;;;;;;;4.30;1.80;;;23.20;99.90;;;;;;5092417;28;20026;-47
2023/09/29 04:42:38;;;;;;;9.38;2.00;;;23.20;99.90;;;;;;5091253;28;20145;-47
2023/09/29 04:45:06;;;;;;;5.90;1.73;;;23.20;99.90;;;;;;5092478;28;20016;-48
2023/09/29 04:47:32;;;;;;;11.32;2.17;;;23.20;99.90;;;;;;5092342;28;20024;-48
2023/09/29 04:49:58;;;;;;;5.97;1.95;;;23.20;99.90;;;;;;5092171;28;20044;-47
2023/09/29 04:52:25;;;;;;;7.75;2.50;;;23.20;99.90;;;;;;5092546;28;20399;-47
2023/09/29 04:54:51;;;;;;;8.43;2.17;;;23.20;99.90;;;;;;5092520;28;20020;-47
2023/09/29 04:57:16;;;;;;;9.55;2.47;;;23.20;99.90;;;;;;5092630;28;20313;-47
2023/09/29 04:59:42;;;;;;;8.27;2.15;;;23.20;99.90;;;;;;5092149;28;20031;-48
2023/09/29 05:02:08;;;;;;;10.27;2.15;;;23.20;99.90;;;;;;5075778;28;20035;-48
2023/09/29 05:04:34;;;;;;;12.30;2.45;;;23.10;99.90;;;;;;5072353;28;20025;-48
2023/09/29 05:07:00;;;;;;;7.25;1.77;;;23.10;99.90;;;;;;5054034;28;20476;-48
2023/09/29 05:09:25;;;;;;;7.18;1.90;;;23.10;99.90;;;;;;5070911;28;20033;-48
2023/09/29 05:11:51;;;;;;;4.70;2.08;;;23.10;99.90;;;;;;5071201;28;20054;-48
2023/09/29 05:14:17;;;;;;;4.93;1.88;;;23.20;99.90;;;;;;5072160;28;20470;-48
2023/09/29 05:16:43;;;;;;;6.22;1.63;;;23.20;99.90;;;;;;5071956;28;20100;-48
2023/09/29 05:19:10;;;;;;;7.20;1.90;;;23.30;99.90;;;;;;5071934;28;20021;-47
2023/09/29 05:21:36;;;;;;;3.20;1.38;;;23.30;99.90;;;;;;5071940;28;20546;-47
2023/09/29 05:24:02;;;;;;;4.75;1.73;;;23.30;99.90;;;;;;5071763;28;20082;-48
2023/09/29 05:26:28;;;;;;;6.97;1.58;;;23.30;99.90;;;;;;5070627;28;20491;-47
2023/09/29 05:28:55;;;;;;;6.15;1.50;;;23.30;99.90;;;;;;5071707;28;20033;-47
2023/09/29 05:31:21;;;;;;;3.22;1.95;;;23.40;99.90;;;;;;5073504;28;20021;-47
2023/09/29 05:33:48;;;;;;;4.93;1.77;;;23.40;99.90;;;;;;5076019;28;20024;-47
2023/09/29 05:36:13;;;;;;;7.93;2.17;;;23.40;99.90;;;;;;5075702;28;20097;-47
2023/09/29 05:38:39;;;;;;;5.13;1.45;;;23.40;99.90;;;;;;5075576;28;20024;-48
2023/09/29 05:41:05;;;;;;;6.05;1.95;;;23.50;99.90;;;;;;5075379;28;20538;-47
2023/09/29 05:43:31;;;;;;;4.72;1.77;;;23.50;99.90;;;;;;5075489;28;20414;-47
2023/09/29 05:45:56;;;;;;;6.80;1.80;;;23.50;99.90;;;;;;5075465;28;20078;-48
2023/09/29 05:48:23;;;;;;;6.00;1.70;;;23.50;99.90;;;;;;5075377;28;20508;-48
2023/09/29 05:50:50;;;;;;;25.63;2.35;;;23.50;99.90;;;;;;5075553;28;20032;-48
2023/09/29 05:53:16;;;;;;;2.80;1.55;;;23.50;99.90;;;;;;5075395;28;20020;-48
2023/09/29 05:55:42;;;;;;;2.65;1.70;;;23.50;99.90;;;;;;5073944;28;20037;-47
2023/09/29 05:58:08;;;;;;;8.27;2.13;;;23.60;99.90;;;;;;5075161;28;20063;-48
2023/09/29 06:00:34;;;;;;;6.97;1.58;;;23.60;99.90;;;;;;5075198;28;20105;-48
2023/09/29 06:03:00;;;;;;;6.10;1.92;;;23.60;99.90;;;;;;5075144;28;20475;-48
2023/09/29 06:05:27;;;;;;;8.65;1.85;;;23.60;99.90;;;;;;5075078;28;20025;-48
2023/09/29 06:07:53;;;;;;;5.30;1.58;;;23.60;99.90;;;;;;5075243;28;20020;-47
2023/09/29 06:10:18;;;;;;;5.53;2.28;;;23.60;99.90;;;;;;5074829;28;20029;-47
2023/09/29 06:12:44;;;;;;;11.20;2.47;;;23.60;99.90;;;;;;5074811;28;20380;-47
2023/09/29 06:15:11;;;;;;;7.25;2.40;;;23.60;99.90;;;;;;5074938;28;20033;-48
2023/09/29 06:17:37;;;;;;;4.00;2.58;;;23.60;99.90;;;;;;5074841;28;20020;-47
2023/09/29 06:20:04;;;;;;;10.77;2.55;;;23.60;99.90;;;;;;5074812;28;20032;-48
2023/09/29 06:22:30;;;;;;;9.93;2.42;;;23.70;99.90;;;;;;5074961;28;20042;-48
2023/09/29 06:24:55;;;;;;;8.75;2.17;;;23.60;99.90;;;;;;5074750;28;20096;-48
2023/09/29 06:27:21;;;;;;;11.52;3.30;;;23.70;99.90;;;;;;5074910;28;20495;-47
2023/09/29 06:29:50;;;;;;;7.65;2.65;;;23.70;99.90;;;;;;5074454;28;20050;-47
2023/09/29 06:32:16;;;;;;;7.88;2.10;;;23.70;99.90;;;;;;5074557;28;20024;-48
2023/09/29 06:34:42;;;;;;;8.60;2.65;;;23.60;99.90;;;;;;5074556;28;20028;-47
2023/09/29 06:37:09;;;;;;;16.98;2.95;;;23.70;99.90;;;;;;5074487;28;20032;-48
2023/09/29 06:39:35;;;;;;;6.95;2.42;;;23.70;99.90;;;;;;5074336;28;20024;-47
2023/09/29 06:42:02;;;;;;;8.25;2.35;;;23.70;99.90;;;;;;5089794;28;20024;-47
2023/09/29 06:44:29;;;;;;;16.55;2.67;;;23.70;99.90;;;;;;5089827;28;20036;-47
2023/09/29 06:46:55;;;;;;;12.43;3.20;;;23.70;99.90;;;;;;5074535;28;20016;-47
2023/09/29 06:49:21;;;;;;;10.05;2.30;;;23.70;99.90;;;;;;5073087;28;20098;-48
2023/09/29 06:51:48;;;;;;;7.32;2.97;;;23.80;99.90;;;;;;5074091;28;20426;-48
2023/09/29 06:54:14;;;;;;;10.10;2.45;;;23.80;99.90;;;;;;5074085;28;20027;-47
2023/09/29 06:56:40;;;;;;;12.32;2.60;;;23.90;99.90;;;;;;5072685;28;20485;-46
2023/09/29 06:59:06;;;;;;;4.93;2.33;;;23.90;99.90;;;;;;5072881;28;20059;-47
2023/09/29 07:01:32;;;;;;;12.23;2.38;;;23.90;99.90;;;;;;5074197;28;20427;-48
2023/09/29 07:03:58;;;;;;;8.63;2.60;;;24.00;99.90;;;;;;5074033;28;20032;-49
2023/09/29 07:06:24;;;;;;;7.55;2.30;;;24.00;99.90;;;;;;5074259;28;20381;-48
2023/09/29 07:08:50;;;;;;;4.43;2.22;;;24.10;99.90;;;;;;5073822;28;20453;-48
2023/09/29 07:11:17;;;;;;;6.22;1.98;;;24.10;99.90;;;;;;5072626;28;20032;-48
2023/09/29 07:13:43;;;;;;;3.30;2.25;;;24.20;99.90;;;;;;5073839;28;20024;-47
2023/09/29 07:16:09;;;;;;;6.50;2.08;;;24.30;99.90;;;;;;5073716;28;20380;-47
2023/09/29 07:18:35;;;;;;;5.82;2.20;;;24.30;99.90;;;;;;5073549;28;20077;-48
2023/09/29 07:21:00;;;;;;;6.60;2.63;;;24.30;99.90;;;;;;5073622;28;20547;-48
2023/09/29 07:23:30;;;;;;;7.03;2.20;;;24.30;99.90;;;;;;5089378;28;20366;-48
2023/09/29 07:25:56;;;;;;;4.63;2.10;;;24.50;99.90;;;;;;5089387;28;20113;-48
2023/09/29 07:28:22;;;;;;;4.40;1.90;;;24.50;99.90;;;;;;5089013;28;20423;-47
2023/09/29 07:30:50;;;;;;;5.95;2.95;;;24.50;99.90;;;;;;5073367;28;20083;-48
2023/09/29 07:33:16;;;;;;;7.97;2.80;;;24.60;99.90;;;;;;5073362;28;20369;-48
2023/09/29 07:35:46;;;;;;;7.18;2.80;;;24.60;99.90;;;;;;5073336;28;20520;-48
2023/09/29 07:38:13;;;;;;;4.82;3.08;;;24.60;99.90;;;;;;5073304;28;20034;-47
2023/09/29 07:40:39;;;;;;;6.93;3.17;;;24.70;99.90;;;;;;5073219;28;20112;-47
2023/09/29 07:43:05;;;;;;;4.80;3.00;;;24.70;99.90;;;;;;5073157;28;20025;-48
2023/09/29 07:45:32;;;;;;;6.38;3.58;;;24.70;99.90;;;;;;5073314;28;20057;-48
2023/09/29 07:47:58;;;;;;;5.47;3.00;;;24.80;99.90;;;;;;5073153;28;20056;-48
2023/09/29 07:50:24;;;;;;;4.25;3.00;;;24.80;99.90;;;;;;5072776;28;20032;-48
2023/09/29 07:52:49;;;;;;;5.20;3.30;;;24.90;99.90;;;;;;5072994;28;20028;-48
2023/09/29 07:55:15;;;;;;;3.85;3.05;;;24.90;99.90;;;;;;5072325;28;20529;-48
2023/09/29 07:57:41;;;;;;;5.80;3.78;;;24.90;99.90;;;;;;5071614;28;20479;-48
2023/09/29 08:00:12;;;;;;;6.20;2.92;;;25.00;99.90;;;;;;5072874;28;20040;-47
2023/09/29 08:02:38;;;;;;;7.80;2.40;;;25.00;99.90;;;;;;5072722;28;20426;-48
2023/09/29 08:05:06;;;;;;;5.28;2.60;;;25.10;99.90;;;;;;5072765;28;20059;-48
2023/09/29 08:07:31;;;;;;;6.20;3.15;;;25.10;99.90;;;;;;5072972;28;20021;-48
2023/09/29 08:09:57;;;;;;;4.75;3.30;;;25.20;99.90;;;;;;5072955;28;20447;-48
2023/09/29 08:12:23;;;;;;;4.85;3.58;;;25.20;99.90;;;;;;5072575;28;20016;-48
2023/09/29 08:14:50;;;;;;;9.32;6.15;;;25.30;99.90;;;;;;5072587;28;20033;-48
2023/09/29 08:17:18;;;;;;;4.88;3.28;;;25.30;99.90;;;;;;5072624;28;20388;-48
2023/09/29 08:19:44;;;;;;;4.97;3.47;;;25.30;99.90;;;;;;5072596;28;20477;-48
2023/09/29 08:22:10;;;;;;;5.05;3.15;;;25.30;99.90;;;;;;5071434;28;20020;-48
2023/09/29 08:24:36;;;;;;;7.32;3.70;;;25.40;99.90;;;;;;5072328;28;20433;-49
2023/09/29 08:27:02;;;;;;;9.77;5.85;;;25.40;99.90;;;;;;5072444;28;20028;-46
2023/09/29 08:29:28;;;;;;;9.82;5.10;;;25.40;99.90;;;;;;5072449;28;20115;-47
2023/09/29 08:31:56;;;;;;;10.68;6.05;;;25.50;99.90;;;;;;5072464;28;20488;-47
2023/09/29 08:34:22;;;;;;;5.63;3.80;;;25.60;99.90;;;;;;5072381;28;20036;-47
2023/09/29 08:36:47;;;;;;;6.82;4.47;;;25.60;99.90;;;;;;5087896;28;20381;-47
2023/09/29 08:39:13;;;;;;;5.35;3.78;;;25.70;99.90;;;;;;5072394;28;20024;-47
2023/09/29 08:41:48;;;;;;;5.95;3.95;;;25.70;99.90;;;;;;5071178;28;20435;-47
2023/09/29 08:44:19;;;;;;;4.75;3.60;;;25.70;99.90;;;;;;5072273;28;20028;-47
2023/09/29 08:46:49;;;;;;;3.72;2.70;;;25.80;99.90;;;;;;5070924;28;20529;-47
2023/09/29 08:49:19;;;;;;;4.75;2.88;;;25.80;99.90;;;;;;5072117;28;20048;-48
2023/09/29 08:51:49;;;;;;;6.20;3.97;;;25.90;99.90;;;;;;5072233;28;20027;-47
2023/09/29 08:54:17;;;;;;;5.18;3.55;;;25.90;99.90;;;;;;5072226;28;20427;-48
2023/09/29 08:56:44;;;;;;;4.28;3.22;;;26.00;99.90;;;;;;5072188;28;20020;-48
2023/09/29 08:59:10;;;;;;;7.70;3.20;;;26.00;99.90;;;;;;5072087;28;20020;-48
2023/09/29 09:01:35;;;;;;;5.95;2.75;;;26.10;99.90;;;;;;5072160;28;20021;-49
2023/09/29 09:04:01;;;;;;;4.43;2.67;;;26.10;99.90;;;;;;5072512;28;20031;-49
2023/09/29 09:06:28;;;;;;;5.00;3.25;;;26.20;99.90;;;;;;5075441;28;20020;-49
2023/09/29 09:08:55;;;;;;;4.05;2.63;;;26.20;99.90;;;;;;5076121;28;20113;-48
2023/09/29 09:11:21;;;;;;;8.57;3.55;;;26.30;99.90;;;;;;5076005;28;20028;-50
2023/09/29 09:14:03;;;;;;;6.45;3.50;;;26.30;99.90;;;;;;5076134;28;20025;-48
2023/09/29 09:16:32;;;;;;;5.15;3.80;;;26.40;99.90;;;;;;5076329;28;20020;-49
2023/09/29 09:19:11;;;;;;;6.35;3.25;;;26.50;99.90;;;;;;5076028;28;20020;-48
2023/09/29 09:21:37;;;;;;;5.47;3.55;;;26.50;99.90;;;;;;5075943;28;20017;-49
2023/09/29 09:24:04;;;;;;;4.57;3.28;;;26.60;99.90;;;;;;5091710;28;20090;-49
2023/09/29 09:26:30;;;;;;;7.50;3.55;;;26.60;99.90;;;;;;5075991;28;20552;-49
2023/09/29 09:29:09;;;;;;;6.82;3.90;;;26.60;99.90;;;;;;5075652;28;20485;-50
2023/09/29 09:31:51;;;;;;;6.70;3.83;;;26.70;99.90;;;;;;5074537;28;20028;-48
2023/09/29 09:34:17;;;;;;;6.45;3.90;;;26.70;99.90;;;;;;5075702;28;20021;-48
2023/09/29 09:36:53;;;;;;;4.88;3.38;;;26.80;99.90;;;;;;5075464;28;20023;-48
2023/09/29 09:39:23;;;;;;;5.80;3.30;;;26.80;99.90;;;;;;5075608;28;20024;-49
2023/09/29 09:41:54;;;;;;;6.85;3.83;;;26.90;99.90;;;;;;5091042;28;20491;-49
2023/09/29 09:44:21;;;;;;;5.97;3.60;;;26.90;99.90;;;;;;5075430;28;20028;-48
2023/09/29 09:47:01;;;;;;;6.13;3.17;;;27.00;99.90;;;;;;5074098;28;20030;-48
2023/09/29 09:49:43;;;;;;;6.78;2.80;;;27.00;99.90;;;;;;5075102;28;20045;-47
2023/09/29 09:52:12;;;;;;;4.50;3.40;;;27.10;99.90;;;;;;5075331;28;20025;-49
2023/09/29 09:54:54;;;;;;;4.00;3.10;;;27.20;99.90;;;;;;5075282;28;20090;-49
2023/09/29 09:57:34;;;;;;;4.25;3.10;;;27.20;99.90;;;;;;5075183;28;20024;-49
2023/09/29 10:00:10;;;;;;;6.65;3.53;;;27.20;99.90;;;;;;5075118;28;20055;-49
2023/09/29 10:02:53;;;;;;;5.47;3.28;;;27.30;99.90;;;;;;5075248;28;20021;-49
2023/09/29 10:05:23;;;;;;;6.88;3.70;;;27.30;99.90;;;;;;5090689;28;20043;-48
2023/09/29 10:07:51;;;;;;;7.63;3.08;;;27.30;99.90;;;;;;5075027;28;20024;-48
2023/09/29 10:10:34;;;;;;;4.80;3.33;;;27.40;99.90;;;;;;5074784;28;20128;-48
2023/09/29 10:13:05;;;;;;;5.65;2.22;;;27.50;99.90;;;;;;5090875;28;20416;-49
2023/09/29 10:15:32;;;;;;;6.97;2.80;;;27.50;99.90;;;;;;5074996;28;20484;-49
2023/09/29 10:18:14;;;;;;;3.95;3.10;;;27.60;99.90;;;;;;5074104;28;20036;-49
2023/09/29 10:20:40;;;;;;;4.50;2.67;;;27.70;99.90;;;;;;5074773;28;20415;-49
2023/09/29 10:23:08;;;;;;;4.25;2.80;;;27.70;99.90;;;;;;5075152;28;20070;-49
2023/09/29 10:25:38;;;;;;;4.05;2.50;;;27.80;99.90;;;;;;5075065;28;20538;-49
2023/09/29 10:28:07;;;;;;;5.28;2.58;;;27.80;99.90;;;;;;5074769;28;20515;-49
2023/09/29 10:30:33;;;;;;;3.58;2.42;;;27.90;99.90;;;;;;5074761;28;20120;-49
2023/09/29 10:33:07;;;;;;;5.50;2.33;;;28.00;99.90;;;;;;5074899;28;20012;-49
2023/09/29 10:35:44;;;;;;;3.40;2.40;;;28.00;99.90;;;;;;5074729;28;20028;-49
2023/09/29 10:38:21;;;;;;;6.65;2.65;;;28.10;99.90;;;;;;5090075;28;20025;-49
2023/09/29 10:40:48;;;;;;;5.00;2.20;;;28.20;99.90;;;;;;5074432;28;20035;-49
2023/09/29 10:43:18;;;;;;;4.88;2.72;;;28.20;99.90;;;;;;5074413;28;20024;-49
2023/09/29 10:45:44;;;;;;;2.42;1.90;;;28.20;99.90;;;;;;5074426;28;20373;-48
2023/09/29 10:48:11;;;;;;;2.75;2.42;;;28.20;99.90;;;;;;5074082;28;20039;-48
2023/09/29 10:50:44;;;;;;;2.97;2.30;;;28.30;99.90;;;;;;5074397;28;20036;-49
2023/09/29 10:53:11;;;;;;;2.35;2.00;;;28.40;99.90;;;;;;5074263;28;20024;-49
2023/09/29 10:55:44;;;;;;;5.95;2.17;;;28.50;99.90;;;;;;5074298;28;20025;-48
2023/09/29 10:58:11;;;;;;;6.03;2.80;;;28.50;99.90;;;;;;5073982;28;20029;-49
2023/09/29 11:00:50;;;;;;;3.05;1.85;;;28.60;99.90;;;;;;5074305;28;20025;-48
2023/09/29 11:03:18;;;;;;;3.05;2.20;;;28.60;99.90;;;;;;5073957;28;20020;-48
2023/09/29 11:05:49;;;;;;;4.40;1.95;;;28.70;99.90;;;;;;5073950;28;20146;-49
2023/09/29 11:08:19;;;;;;;4.07;2.17;;;28.70;99.90;;;;;;5073926;28;20021;-49
2023/09/29 11:10:59;;;;;;;4.63;2.13;;;28.80;99.90;;;;;;5073685;28;20111;-49
2023/09/29 11:13:27;;;;;;;4.53;2.50;;;28.80;99.90;;;;;;5073959;28;20027;-48
2023/09/29 11:15:53;;;;;;;3.20;2.03;;;28.80;99.90;;;;;;5072498;28;20082;-48
2023/09/29 11:18:35;;;;;;;2.13;1.90;;;28.90;99.90;;;;;;5073629;28;20017;-49
2023/09/29 11:21:10;;;;;;;2.70;2.13;;;29.00;99.90;;;;;;5073577;28;20430;-49
2023/09/29 11:23:49;;;;;;;3.10;2.53;;;29.10;99.90;;;;;;5073958;28;20024;-49
2023/09/29 11:26:15;;;;;;;3.63;1.75;;;29.20;99.90;;;;;;5072335;28;20406;-49
2023/09/29 11:28:43;;;;;;;4.50;2.67;;;29.30;99.90;;;;;;5072408;28;20056;-49
2023/09/29 11:31:13;;;;;;;2.58;2.25;;;29.40;99.90;;;;;;5074565;28;20113;-49
2023/09/29 11:33:40;;;;;;;4.95;2.80;;;29.50;99.90;;;;;;5073655;28;20028;-48
2023/09/29 11:36:15;;;;;;;4.50;2.25;;;29.60;99.90;;;;;;5073635;28;20051;-49
2023/09/29 11:38:41;;;;;;;2.65;1.60;;;29.70;99.90;;;;;;5073575;28;20383;-48
2023/09/29 11:41:07;;;;;;;3.72;2.10;;;29.70;99.90;;;;;;5073440;28;20024;-48
2023/09/29 11:43:34;;;;;;;2.55;2.05;;;29.90;99.90;;;;;;5073217;28;20032;-49
2023/09/29 11:46:00;;;;;;;4.50;2.00;;;29.90;99.90;;;;;;5073051;28;20025;-48
2023/09/29 11:48:26;;;;;;;3.88;2.20;;;30.00;99.90;;;;;;5072873;28;20292;-49
2023/09/29 11:50:53;;;;;;;2.78;1.88;;;30.00;99.90;;;;;;5072864;28;20484;-49
2023/09/29 11:53:19;;;;;;;3.00;2.00;;;30.00;99.90;;;;;;5073069;28;20021;-49
2023/09/29 11:55:45;;;;;;;4.25;2.15;;;30.00;99.90;;;;;;5088573;28;20039;-49
2023/09/29 11:58:11;;;;;;;3.83;1.65;;;30.00;99.90;;;;;;5073103;28;20091;-48
2023/09/29 12:00:37;;;;;;;2.47;2.00;;;30.00;99.90;;;;;;5072815;28;20021;-48
2023/09/29 12:03:06;;;;;;;3.58;2.35;;;30.10;99.90;;;;;;5072991;28;20032;-49
2023/09/29 12:05:36;;;;;;;2.58;1.70;;;30.00;99.90;;;;;;5072876;28;20094;-49
2023/09/29 12:08:05;;;;;;;7.28;4.00;;;30.00;99.90;;;;;;5072631;28;20020;-49
2023/09/29 12:10:31;;;;;;;5.00;3.60;;;29.90;99.90;;;;;;5072620;28;20552;-49
2023/09/29 12:13:00;;;;;;;3.80;2.35;;;29.90;99.90;;;;;;5072636;28;20028;-49
2023/09/29 12:15:26;;;;;;;4.32;2.45;;;29.90;99.90;;;;;;5072592;28;20095;-49
2023/09/29 12:17:52;;;;;;;3.75;2.50;;;29.90;99.90;;;;;;5072656;28;20096;-49
2023/09/29 12:20:18;;;;;;;5.40;3.20;;;29.80;99.90;;;;;;5072362;28;20061;-48
2023/09/29 12:22:46;;;;;;;8.48;4.53;;;29.80;99.90;;;;;;5090983;28;20020;-48
2023/09/29 12:25:14;;;;;;;;;;;29.80;99.90;;;;;;5093044;28;20024;-48
2023/09/29 12:27:44;;;;;;;4.43;2.08;;;29.70;99.90;;;;;;5091717;28;19904;-48
2023/09/29 12:30:14;;;;;;;4.88;2.60;;;29.80;99.90;;;;;;5092915;28;20377;-48
2023/09/29 12:32:41;;;;;;;4.80;2.20;;;29.80;99.90;;;;;;5091567;28;20429;-48
2023/09/29 12:35:09;;;;;;;3.83;1.90;;;29.80;99.90;;;;;;5091686;28;20059;-48
2023/09/29 12:37:37;;;;;;;6.30;2.28;;;29.80;99.90;;;;;;5091636;28;20027;-48
2023/09/29 12:40:04;;;;;;;1.98;1.70;;;29.80;99.90;;;;;;5091764;28;20471;-48
2023/09/29 12:42:30;;;;;;;4.05;2.53;;;29.80;99.90;;;;;;5091300;28;20055;-48
2023/09/29 12:44:55;;;;;;;4.05;2.15;;;29.90;99.90;;;;;;5092091;28;20020;-47
2023/09/29 12:47:21;;;;;;;3.63;1.83;;;29.90;99.90;;;;;;5085746;28;20544;-45
2023/09/29 12:49:47;;;;;;;3.85;1.33;;;29.90;99.90;;;;;;5090602;28;20051;-47
2023/09/29 12:52:15;;;;;;;4.68;1.27;;;30.00;99.90;;;;;;5092901;28;20067;-48